Time;durP1;ratioP1;P1;durP2;ratioP2;P2;SDS_P1;SDS_P2;PMS_P1;PMS_P2;Temp;Humidity;BMP_temperature;BMP_pressure;BME280_temperature;BME280_humidity;BME280_pressure;Samples;Min_cycle;Max_cycle;Signal;HPM_P1;HPM_P2
2023/07/18 00:02:07;;;;;;;10.02;2.80;;;;;;;;;;4994748;28;20473;-74
2023/07/18 00:04:33;;;;;;;9.88;2.88;;;;;;;;;;4993092;28;20114;-74
2023/07/18 00:06:59;;;;;;;10.23;3.03;;;;;;;;;;4994228;28;20105;-74
2023/07/18 00:09:25;;;;;;;8.30;2.90;;;;;;;;;;4992891;28;20535;-74
2023/07/18 00:11:51;;;;;;;9.48;3.40;;;;;;;;;;4994403;28;20049;-74
2023/07/18 00:14:17;;;;;;;7.47;3.05;;;;;;;;;;4993958;28;20049;-74
2023/07/18 00:16:44;;;;;;;8.20;2.75;;;;;;;;;;4992722;28;20058;-74
2023/07/18 00:19:12;;;;;;;9.02;2.75;;;;;;;;;;4993719;28;20053;-74
2023/07/18 00:21:38;;;;;;;6.72;2.97;;;;;;;;;;4994167;28;20019;-74
2023/07/18 00:24:04;;;;;;;7.25;2.88;;;;;;;;;;4993822;28;20533;-74
2023/07/18 00:26:30;;;;;;;10.32;3.22;;;;;;;;;;4993833;28;20397;-74
2023/07/18 00:28:56;;;;;;;9.63;2.90;;;;;;;;;;4993760;28;20021;-74
2023/07/18 00:31:22;;;;;;;5.97;2.50;;;;;;;;;;4993699;28;20019;-74
2023/07/18 00:33:48;;;;;;;8.85;2.50;;;;;;;;;;4993681;28;20039;-74
2023/07/18 00:36:14;;;;;;;8.45;3.08;;;;;;;;;;4993678;28;20421;-74
2023/07/18 00:38:40;;;;;;;6.32;2.95;;;;;;;;;;4993680;28;20026;-74
2023/07/18 00:41:10;;;;;;;9.82;3.45;;;;;;;;;;4993441;28;20118;-74
2023/07/18 00:43:37;;;;;;;9.43;3.40;;;;;;;;;;5007392;28;20034;-74
2023/07/18 00:46:04;;;;;;;11.63;3.30;;;;;;;;;;5013339;28;20022;-74
2023/07/18 00:48:32;;;;;;;7.82;3.67;;;;;;;;;;5013095;28;20483;-74
2023/07/18 00:50:58;;;;;;;11.07;3.65;;;;;;;;;;5013208;28;20041;-74
2023/07/18 00:53:24;;;;;;;6.68;3.20;;;;;;;;;;5013053;28;20037;-74
2023/07/18 00:55:50;;;;;;;8.00;2.92;;;;;;;;;;5012999;28;20432;-74
2023/07/18 00:58:17;;;;;;;7.18;3.00;;;;;;;;;;5013019;28;20495;-74
2023/07/18 01:00:43;;;;;;;6.22;3.03;;;;;;;;;;5012941;28;20076;-74
2023/07/18 01:03:09;;;;;;;14.15;3.70;;;;;;;;;;5012848;28;20038;-74
2023/07/18 01:05:37;;;;;;;7.93;3.22;;;;;;;;;;5012863;28;20040;-74
2023/07/18 01:08:04;;;;;;;10.75;3.58;;;;;;;;;;5012248;28;20468;-74
2023/07/18 01:10:30;;;;;;;11.00;3.20;;;;;;;;;;5012664;28;20560;-74
2023/07/18 01:12:57;;;;;;;6.80;2.95;;;;;;;;;;5011294;28;20068;-74
2023/07/18 01:15:24;;;;;;;11.65;3.10;;;;;;;;;;5012534;28;20034;-74
2023/07/18 01:17:50;;;;;;;10.88;3.28;;;;;;;;;;5012554;28;20026;-74
2023/07/18 01:20:23;;;;;;;6.45;3.00;;;;;;;;;;5012294;28;20052;-74
2023/07/18 01:22:50;;;;;;;11.25;3.70;;;;;;;;;;5012442;28;20092;-74
2023/07/18 01:25:19;;;;;;;8.23;3.10;;;;;;;;;;5012398;28;20040;-74
2023/07/18 01:27:45;;;;;;;9.85;3.40;;;;;;;;;;5012701;28;20427;-73
2023/07/18 01:30:12;;;;;;;6.50;2.90;;;;;;;;;;5012696;28;20022;-74
2023/07/18 01:32:38;;;;;;;7.47;3.30;;;;;;;;;;5012641;28;20457;-74
2023/07/18 01:35:05;;;;;;;8.43;3.03;;;;;;;;;;5012661;28;20026;-74
2023/07/18 01:37:32;;;;;;;9.00;2.72;;;;;;;;;;5012859;28;20033;-73
2023/07/18 01:39:59;;;;;;;8.15;2.95;;;;;;;;;;5012504;28;20049;-73
2023/07/18 01:42:25;;;;;;;7.95;3.42;;;;;;;;;;5012839;28;20049;-74
2023/07/18 01:44:51;;;;;;;11.27;3.30;;;;;;;;;;5012698;28;20026;-74
2023/07/18 01:47:17;;;;;;;10.00;3.30;;;;;;;;;;5012643;28;20026;-74
2023/07/18 01:49:43;;;;;;;9.35;3.22;;;;;;;;;;5012495;28;20026;-74
2023/07/18 01:52:09;;;;;;;10.82;3.10;;;;;;;;;;5012441;28;20062;-74
2023/07/18 01:54:35;;;;;;;8.70;3.10;;;;;;;;;;5012378;28;20501;-74
2023/07/18 01:57:00;;;;;;;10.23;3.35;;;;;;;;;;5012409;28;20102;-74
2023/07/18 01:59:26;;;;;;;8.25;3.30;;;;;;;;;;5012357;28;20029;-73
2023/07/18 02:01:52;;;;;;;10.77;3.70;;;;;;;;;;5012257;28;20037;-74
2023/07/18 02:04:18;;;;;;;8.35;3.17;;;;;;;;;;5012396;28;20030;-74
2023/07/18 02:06:45;;;;;;;12.32;3.58;;;;;;;;;;5010964;28;20026;-74
2023/07/18 02:09:11;;;;;;;6.63;3.00;;;;;;;;;;5012148;28;20619;-74
2023/07/18 02:11:37;;;;;;;9.07;3.40;;;;;;;;;;5012648;28;20461;-75
2023/07/18 02:14:03;;;;;;;9.95;3.65;;;;;;;;;;5012239;28;20495;-75
2023/07/18 02:16:29;;;;;;;8.07;3.33;;;;;;;;;;5012528;28;20072;-75
2023/07/18 02:18:57;;;;;;;7.65;3.15;;;;;;;;;;5011973;28;20056;-75
2023/07/18 02:21:23;;;;;;;9.80;3.25;;;;;;;;;;5015416;28;20030;-75
2023/07/18 02:23:49;;;;;;;13.98;3.67;;;;;;;;;;5015831;28;20038;-75
2023/07/18 02:26:15;;;;;;;9.55;3.33;;;;;;;;;;5015811;28;20101;-75
2023/07/18 02:28:41;;;;;;;11.18;3.63;;;;;;;;;;5015633;28;20025;-75
2023/07/18 02:31:07;;;;;;;13.75;3.53;;;;;;;;;;5015614;28;20526;-74
2023/07/18 02:33:33;;;;;;;10.23;3.00;;;;;;;;;;5015605;28;20026;-74
2023/07/18 02:35:59;;;;;;;8.18;2.95;;;;;;;;;;5015532;28;20025;-74
2023/07/18 02:38:25;;;;;;;7.03;3.47;;;;;;;;;;5015697;28;20026;-74
2023/07/18 02:40:52;;;;;;;8.30;3.00;;;;;;;;;;5015757;28;20076;-74
2023/07/18 02:43:18;;;;;;;13.20;3.72;;;;;;;;;;5015386;28;20057;-74
2023/07/18 02:45:44;;;;;;;9.00;3.00;;;;;;;;;;5015403;28;20087;-74
2023/07/18 02:48:10;;;;;;;7.93;3.05;;;;;;;;;;5015249;28;20105;-74
2023/07/18 02:50:36;;;;;;;8.60;2.97;;;;;;;;;;5015292;28;20365;-74
2023/07/18 02:53:03;;;;;;;11.25;4.10;;;;;;;;;;5015338;28;20032;-74
2023/07/18 02:55:29;;;;;;;12.48;3.80;;;;;;;;;;5015467;28;20029;-74
2023/07/18 02:57:55;;;;;;;11.95;3.58;;;;;;;;;;5015258;28;20534;-74
2023/07/18 03:00:25;;;;;;;8.90;3.30;;;;;;;;;;5015121;28;20034;-74
2023/07/18 03:02:52;;;;;;;7.13;2.83;;;;;;;;;;5015099;28;20041;-74
2023/07/18 03:05:18;;;;;;;8.70;3.42;;;;;;;;;;5015320;28;20380;-74
2023/07/18 03:07:46;;;;;;;7.18;2.70;;;;;;;;;;5015017;28;20045;-74
2023/07/18 03:10:13;;;;;;;7.57;2.72;;;;;;;;;;5015235;28;20014;-74
2023/07/18 03:12:40;;;;;;;8.95;3.35;;;;;;;;;;5015198;28;20113;-74
2023/07/18 03:15:09;;;;;;;15.15;3.10;;;;;;;;;;5015310;28;20022;-74
2023/07/18 03:17:35;;;;;;;8.43;3.65;;;;;;;;;;5015070;28;20026;-74
2023/07/18 03:20:05;;;;;;;8.77;3.30;;;;;;;;;;5014282;28;20041;-74
2023/07/18 03:22:31;;;;;;;7.68;2.80;;;;;;;;;;5014668;28;20034;-74
2023/07/18 03:25:05;;;;;;;7.28;3.00;;;;;;;;;;5014600;28;20483;-74
2023/07/18 03:27:31;;;;;;;7.40;3.20;;;;;;;;;;5014635;28;20026;-74
2023/07/18 03:29:57;;;;;;;11.00;3.60;;;;;;;;;;5014291;28;20706;-74
2023/07/18 03:32:23;;;;;;;8.70;3.85;;;;;;;;;;5013837;28;20037;-74
2023/07/18 03:34:49;;;;;;;13.52;3.88;;;;;;;;;;5014463;28;20033;-74
2023/07/18 03:37:15;;;;;;;14.27;4.40;;;;;;;;;;5014479;28;20361;-74
2023/07/18 03:39:41;;;;;;;12.77;4.22;;;;;;;;;;5014713;28;20034;-74
2023/07/18 03:42:07;;;;;;;11.65;4.35;;;;;;;;;;5014392;28;20034;-74
2023/07/18 03:44:33;;;;;;;11.52;3.53;;;;;;;;;;5014458;28;20026;-74
2023/07/18 03:46:59;;;;;;;9.32;3.22;;;;;;;;;;5014435;28;20471;-74
2023/07/18 03:49:25;;;;;;;11.98;3.65;;;;;;;;;;5012814;28;20026;-74
2023/07/18 03:51:51;;;;;;;8.30;3.60;;;;;;;;;;5014098;28;20081;-74
2023/07/18 03:54:18;;;;;;;12.68;4.30;;;;;;;;;;5014046;28;20524;-74
2023/07/18 03:56:44;;;;;;;14.63;3.92;;;;;;;;;;5014163;28;20432;-74
2023/07/18 03:59:10;;;;;;;10.68;3.75;;;;;;;;;;5014294;28;20026;-74
2023/07/18 04:01:36;;;;;;;14.00;4.20;;;;;;;;;;5013913;28;20026;-74
2023/07/18 04:04:02;;;;;;;10.05;3.92;;;;;;;;;;5013752;28;20029;-74
2023/07/18 04:06:28;;;;;;;10.30;3.83;;;;;;;;;;5013747;28;20017;-74
2023/07/18 04:08:54;;;;;;;7.57;3.40;;;;;;;;;;5014011;28;20018;-74
2023/07/18 04:11:20;;;;;;;9.02;3.58;;;;;;;;;;5013539;28;20109;-74
2023/07/18 04:13:46;;;;;;;5.55;3.40;;;;;;;;;;5013496;28;20057;-74
2023/07/18 04:16:12;;;;;;;6.63;3.70;;;;;;;;;;5013560;28;20030;-74
2023/07/18 04:18:38;;;;;;;7.70;3.78;;;;;;;;;;5011563;28;20500;-75
2023/07/18 04:21:04;;;;;;;9.90;3.97;;;;;;;;;;5013482;28;20026;-74
2023/07/18 04:23:31;;;;;;;7.32;4.30;;;;;;;;;;5013215;28;20065;-74
2023/07/18 04:25:58;;;;;;;9.10;4.03;;;;;;;;;;5013217;28;20037;-74
2023/07/18 04:28:24;;;;;;;8.85;3.83;;;;;;;;;;5013232;28;20121;-74
2023/07/18 04:30:50;;;;;;;5.88;3.53;;;;;;;;;;5013395;28;20054;-74
2023/07/18 04:33:16;;;;;;;10.07;3.63;;;;;;;;;;5013339;28;20037;-74
2023/07/18 04:35:44;;;;;;;6.30;3.42;;;;;;;;;;5013230;28;20053;-74
2023/07/18 04:38:11;;;;;;;8.98;3.97;;;;;;;;;;5013454;28;20026;-74
2023/07/18 04:40:37;;;;;;;9.95;4.07;;;;;;;;;;5013465;28;20026;-74
2023/07/18 04:43:03;;;;;;;7.05;3.53;;;;;;;;;;5012382;28;20175;-74
2023/07/18 04:45:29;;;;;;;9.32;3.67;;;;;;;;;;5013172;28;20101;-74
2023/07/18 04:47:55;;;;;;;9.45;3.78;;;;;;;;;;5013422;28;20030;-74
2023/07/18 04:50:21;;;;;;;7.07;3.75;;;;;;;;;;5012996;28;20028;-74
2023/07/18 04:52:47;;;;;;;9.00;4.30;;;;;;;;;;5012998;28;20034;-73
2023/07/18 04:55:13;;;;;;;8.75;4.40;;;;;;;;;;5012981;28;20073;-74
2023/07/18 04:57:39;;;;;;;9.75;4.22;;;;;;;;;;5012906;28;20030;-74
2023/07/18 05:00:06;;;;;;;7.63;3.28;;;;;;;;;;5012646;28;20471;-74
2023/07/18 05:02:32;;;;;;;10.68;3.58;;;;;;;;;;5012723;28;20042;-74
2023/07/18 05:04:58;;;;;;;8.02;3.85;;;;;;;;;;5012777;28;20073;-74
2023/07/18 05:07:24;;;;;;;8.13;3.47;;;;;;;;;;5012738;28;20026;-75
2023/07/18 05:09:50;;;;;;;8.98;3.63;;;;;;;;;;5012815;28;20026;-74
2023/07/18 05:12:17;;;;;;;9.43;3.30;;;;;;;;;;5012982;28;20116;-75
2023/07/18 05:14:43;;;;;;;10.45;3.70;;;;;;;;;;5012932;28;20040;-75
2023/07/18 05:17:09;;;;;;;9.55;3.25;;;;;;;;;;5013123;28;20546;-75
2023/07/18 05:19:35;;;;;;;9.48;3.13;;;;;;;;;;5012691;28;20560;-75
2023/07/18 05:22:01;;;;;;;6.05;2.95;;;;;;;;;;5012776;28;20025;-75
2023/07/18 05:24:27;;;;;;;6.40;3.42;;;;;;;;;;5012788;28;20464;-74
2023/07/18 05:26:53;;;;;;;7.65;3.47;;;;;;;;;;5012654;28;20026;-74
2023/07/18 05:29:19;;;;;;;9.13;3.38;;;;;;;;;;5011371;28;20464;-74
2023/07/18 05:31:45;;;;;;;11.70;3.72;;;;;;;;;;5012619;28;20121;-74
2023/07/18 05:34:11;;;;;;;8.57;3.42;;;;;;;;;;5012505;28;20038;-74
2023/07/18 05:36:37;;;;;;;11.35;3.80;;;;;;;;;;5012630;28;20080;-74
2023/07/18 05:39:03;;;;;;;13.13;4.32;;;;;;;;;;5012683;28;20455;-75
2023/07/18 05:41:29;;;;;;;10.35;3.58;;;;;;;;;;5012425;28;20018;-75
2023/07/18 05:43:55;;;;;;;9.57;3.80;;;;;;;;;;5012315;28;20357;-75
2023/07/18 05:46:21;;;;;;;10.18;3.75;;;;;;;;;;5012419;28;20044;-74
2023/07/18 05:48:47;;;;;;;13.63;4.20;;;;;;;;;;5012380;28;20452;-75
2023/07/18 05:51:13;;;;;;;12.18;4.18;;;;;;;;;;5012263;28;20030;-75
2023/07/18 05:53:39;;;;;;;11.75;3.88;;;;;;;;;;5012944;28;20606;-74
2023/07/18 05:56:05;;;;;;;10.23;3.70;;;;;;;;;;5016124;28;20045;-75
2023/07/18 05:58:31;;;;;;;12.40;4.15;;;;;;;;;;5016020;28;20026;-75
2023/07/18 06:00:57;;;;;;;16.73;4.32;;;;;;;;;;5015150;28;20110;-75
2023/07/18 06:03:23;;;;;;;15.60;4.95;;;;;;;;;;5015589;28;20520;-74
2023/07/18 06:05:55;;;;;;;14.80;5.35;;;;;;;;;;5015884;28;20028;-74
2023/07/18 06:08:21;;;;;;;18.30;4.70;;;;;;;;;;5015826;28;20052;-75
2023/07/18 06:10:48;;;;;;;11.13;4.07;;;;;;;;;;5000564;28;20513;-75
2023/07/18 06:13:14;;;;;;;12.35;4.20;;;;;;;;;;4996081;28;20062;-74
2023/07/18 06:15:40;;;;;;;15.13;4.15;;;;;;;;;;5013649;28;20050;-75
2023/07/18 06:18:06;;;;;;;10.82;4.47;;;;;;;;;;5015769;28;20109;-75
2023/07/18 06:20:32;;;;;;;12.07;4.60;;;;;;;;;;5015395;28;20523;-75
2023/07/18 06:22:59;;;;;;;16.65;5.05;;;;;;;;;;5010527;28;20034;-75
2023/07/18 06:25:26;;;;;;;10.45;4.75;;;;;;;;;;5015475;28;20036;-75
2023/07/18 06:27:52;;;;;;;15.60;4.78;;;;;;;;;;5015178;28;20109;-75
2023/07/18 06:30:18;;;;;;;12.38;4.25;;;;;;;;;;5015219;28;20438;-75
2023/07/18 06:32:44;;;;;;;12.30;4.53;;;;;;;;;;5015368;28;20029;-75
2023/07/18 06:35:12;;;;;;;15.23;4.70;;;;;;;;;;5007011;28;20057;-75
2023/07/18 06:37:38;;;;;;;11.75;4.05;;;;;;;;;;4995850;28;20065;-75
2023/07/18 06:40:05;;;;;;;11.57;4.05;;;;;;;;;;4995897;28;20026;-75
2023/07/18 06:42:31;;;;;;;9.45;3.08;;;;;;;;;;5000989;28;20058;-75
2023/07/18 06:45:04;;;;;;;7.80;2.50;;;;;;;;;;5001234;28;20113;-75
2023/07/18 06:47:30;;;;;;;8.10;2.13;;;;;;;;;;4995524;28;20110;-75
2023/07/18 06:49:56;;;;;;;11.05;2.60;;;;;;;;;;4995544;28;20034;-75
2023/07/18 06:52:22;;;;;;;8.48;2.83;;;;;;;;;;4995359;28;20034;-75
2023/07/18 06:54:48;;;;;;;12.35;3.13;;;;;;;;;;4995429;28;20030;-75
2023/07/18 06:57:15;;;;;;;11.27;2.83;;;;;;;;;;4995406;28;20045;-75
2023/07/18 06:59:42;;;;;;;9.05;2.60;;;;;;;;;;4995502;28;20022;-75
2023/07/18 07:02:12;;;;;;;13.10;3.00;;;;;;;;;;4995240;28;20045;-74
2023/07/18 07:04:39;;;;;;;10.65;2.45;;;;;;;;;;4995292;28;20037;-73
2023/07/18 07:07:05;;;;;;;8.18;2.55;;;;;;;;;;4994364;28;20030;-73
2023/07/18 07:09:31;;;;;;;8.40;2.28;;;;;;;;;;4996693;28;20027;-73
2023/07/18 07:11:57;;;;;;;11.85;2.85;;;;;;;;;;5014610;28;20030;-73
2023/07/18 07:14:30;;;;;;;10.35;2.83;;;;;;;;;;5014644;28;20049;-73
2023/07/18 07:16:57;;;;;;;10.20;2.53;;;;;;;;;;5008280;28;20026;-73
2023/07/18 07:19:23;;;;;;;8.63;2.60;;;;;;;;;;5000339;28;20545;-75
2023/07/18 07:21:49;;;;;;;10.13;3.03;;;;;;;;;;5013539;28;20079;-74
2023/07/18 07:24:15;;;;;;;8.70;2.88;;;;;;;;;;4995055;28;20031;-74
2023/07/18 07:26:43;;;;;;;6.32;1.90;;;;;;;;;;5006873;28;20664;-75
2023/07/18 07:29:10;;;;;;;13.50;2.38;;;;;;;;;;5013168;28;20088;-74
2023/07/18 07:31:37;;;;;;;6.30;2.10;;;;;;;;;;5014301;28;20034;-74
2023/07/18 07:34:03;;;;;;;7.57;1.63;;;;;;;;;;5007608;28;20376;-74
2023/07/18 07:36:29;;;;;;;6.53;1.75;;;;;;;;;;5008964;28;20097;-75
2023/07/18 07:38:55;;;;;;;8.30;1.98;;;;;;;;;;5011915;28;20099;-75
2023/07/18 07:41:22;;;;;;;7.13;1.80;;;;;;;;;;5005913;28;20402;-75
2023/07/18 07:43:48;;;;;;;7.93;1.85;;;;;;;;;;5011803;28;20030;-75
2023/07/18 07:46:14;;;;;;;4.90;1.33;;;;;;;;;;5011120;28;20045;-75
2023/07/18 07:48:40;;;;;;;6.20;1.83;;;;;;;;;;5000509;28;20058;-75
2023/07/18 07:51:06;;;;;;;5.45;1.48;;;;;;;;;;5009670;28;20026;-75
2023/07/18 07:53:32;;;;;;;7.32;1.70;;;;;;;;;;5010154;28;20026;-75
2023/07/18 07:55:58;;;;;;;4.72;1.70;;;;;;;;;;5013598;28;20372;-75
2023/07/18 07:58:24;;;;;;;9.93;2.13;;;;;;;;;;5010882;28;20110;-74
2023/07/18 08:00:51;;;;;;;8.52;1.75;;;;;;;;;;5010992;28;20029;-75
2023/07/18 08:03:17;;;;;;;8.70;2.05;;;;;;;;;;5004706;28;20062;-74
2023/07/18 08:05:43;;;;;;;9.23;2.10;;;;;;;;;;5013258;28;20113;-75
2023/07/18 08:08:10;;;;;;;8.68;1.70;;;;;;;;;;5011166;28;20034;-76
2023/07/18 08:10:36;;;;;;;6.93;1.77;;;;;;;;;;5011244;28;20050;-75
2023/07/18 08:13:02;;;;;;;5.75;2.00;;;;;;;;;;4994019;28;20095;-75
2023/07/18 08:15:28;;;;;;;5.10;2.17;;;;;;;;;;4994034;28;20453;-75
2023/07/18 08:17:54;;;;;;;7.25;1.95;;;;;;;;;;4993942;28;20516;-75
2023/07/18 08:20:21;;;;;;;6.63;1.70;;;;;;;;;;4993644;28;20050;-75
2023/07/18 08:22:47;;;;;;;7.30;1.85;;;;;;;;;;5004869;28;20082;-75
2023/07/18 08:25:14;;;;;;;7.10;1.33;;;;;;;;;;5012617;28;20055;-75
2023/07/18 08:27:40;;;;;;;4.03;1.50;;;;;;;;;;5004352;28;20092;-75
2023/07/18 08:30:06;;;;;;;5.82;1.50;;;;;;;;;;5004725;28;20481;-75
2023/07/18 08:32:32;;;;;;;4.80;1.70;;;;;;;;;;5013022;28;20101;-75
2023/07/18 08:34:58;;;;;;;3.45;1.50;;;;;;;;;;5013159;28;20100;-75
2023/07/18 08:37:24;;;;;;;3.67;1.10;;;;;;;;;;5013197;28;20034;-75
2023/07/18 08:39:51;;;;;;;4.25;1.33;;;;;;;;;;5012783;28;20361;-75
2023/07/18 08:42:19;;;;;;;2.72;1.30;;;;;;;;;;5013076;28;20181;-75
2023/07/18 08:44:45;;;;;;;4.10;1.42;;;;;;;;;;5011624;28;20508;-74
2023/07/18 08:47:12;;;;;;;3.17;1.20;;;;;;;;;;4999615;28;20022;-74
2023/07/18 08:49:39;;;;;;;2.50;1.05;;;;;;;;;;5012572;28;20034;-74
2023/07/18 08:52:06;;;;;;;4.68;1.20;;;;;;;;;;5012974;28;20075;-75
2023/07/18 08:54:33;;;;;;;4.50;1.25;;;;;;;;;;5012818;28;20055;-74
2023/07/18 08:56:59;;;;;;;6.60;1.55;;;;;;;;;;5013156;28;20022;-75
2023/07/18 08:59:26;;;;;;;3.47;1.27;;;;;;;;;;5010994;28;20113;-74
2023/07/18 09:01:53;;;;;;;5.65;1.45;;;;;;;;;;4993100;28;20441;-74
2023/07/18 09:04:19;;;;;;;4.18;1.35;;;;;;;;;;5002232;28;20070;-75
2023/07/18 09:06:49;;;;;;;3.40;1.13;;;;;;;;;;5012531;28;20042;-75
2023/07/18 09:09:17;;;;;;;4.88;1.38;;;;;;;;;;5012077;28;20033;-75
2023/07/18 09:12:03;;;;;;;5.75;1.60;;;;;;;;;;5006137;28;20088;-75
2023/07/18 09:14:33;;;;;;;9.18;1.90;;;;;;;;;;5011352;28;20049;-74
2023/07/18 09:17:03;;;;;;;5.20;1.85;;;;;;;;;;5020787;28;20029;-75
2023/07/18 09:19:48;;;;;;;6.00;1.85;;;;;;;;;;4997473;28;20764;-75
2023/07/18 09:22:15;;;;;;;9.25;1.80;;;;;;;;;;5005992;28;20079;-75
2023/07/18 09:24:42;;;;;;;7.97;2.30;;;;;;;;;;5012448;28;20026;-75
2023/07/18 09:27:18;;;;;;;6.45;1.98;;;;;;;;;;5013168;28;20021;-75
2023/07/18 09:29:45;;;;;;;9.18;2.30;;;;;;;;;;5021522;28;20025;-75
2023/07/18 09:32:20;;;;;;;7.22;2.17;;;;;;;;;;5009768;28;20022;-75
2023/07/18 09:34:57;;;;;;;5.68;1.67;;;;;;;;;;5028085;28;20100;-74
2023/07/18 09:37:23;;;;;;;8.40;1.92;;;;;;;;;;5029431;28;20025;-74
2023/07/18 09:39:49;;;;;;;5.93;1.70;;;;;;;;;;5017819;28;20022;-75
2023/07/18 09:42:19;;;;;;;8.20;2.03;;;;;;;;;;5021690;28;20033;-74
2023/07/18 09:44:49;;;;;;;6.90;2.45;;;;;;;;;;5038543;28;20025;-74
2023/07/18 09:47:15;;;;;;;7.43;1.90;;;;;;;;;;5038534;28;20381;-74
2023/07/18 09:49:44;;;;;;;9.50;2.10;;;;;;;;;;5038445;28;20523;-74
2023/07/18 09:52:10;;;;;;;;;;;;;;;;;;5038964;28;20026;-74
2023/07/18 09:54:36;;;;;;;8.75;1.90;;;;;;;;;;5038393;28;19913;-74
2023/07/18 09:57:09;;;;;;;7.75;2.50;;;;;;;;;;5038463;28;20401;-74
2023/07/18 09:59:38;;;;;;;8.52;2.70;;;;;;;;;;5037681;28;20474;-75
2023/07/18 10:02:06;;;;;;;6.63;2.50;;;;;;;;;;5038451;28;20025;-75
2023/07/18 10:04:33;;;;;;;11.88;2.67;;;;;;;;;;5038873;28;20018;-75
2023/07/18 10:07:00;;;;;;;7.50;2.60;;;;;;;;;;5038499;28;20024;-75
2023/07/18 10:09:27;;;;;;;8.63;2.67;;;;;;;;;;5019297;28;20468;-75
2023/07/18 10:12:00;;;;;;;10.15;2.80;;;;;;;;;;5004201;28;20018;-75
2023/07/18 10:14:29;;;;;;;7.72;1.98;;;;;;;;;;5011770;28;20083;-75
2023/07/18 10:16:59;;;;;;;6.72;2.40;;;;;;;;;;5000061;28;20481;-74
2023/07/18 10:19:46;;;;;;;9.52;2.40;;;;;;;;;;5004412;28;20050;-73
2023/07/18 10:22:12;;;;;;;5.47;1.92;;;;;;;;;;5001080;28;20022;-74
2023/07/18 10:24:48;;;;;;;9.43;2.35;;;;;;;;;;5004086;28;20033;-74
2023/07/18 10:27:15;;;;;;;7.97;2.25;;;;;;;;;;5014111;28;20101;-75
2023/07/18 10:29:43;;;;;;;6.85;2.30;;;;;;;;;;5018508;28;20049;-74
2023/07/18 10:32:12;;;;;;;8.70;2.17;;;;;;;;;;5018278;28;20025;-75
2023/07/18 10:34:38;;;;;;;8.68;2.85;;;;;;;;;;5018273;28;20026;-74
2023/07/18 10:37:08;;;;;;;13.50;2.22;;;;;;;;;;5018580;28;20412;-74
2023/07/18 10:39:34;;;;;;;;;;;;;;;;;;5017928;28;20420;-74
2023/07/18 10:42:05;;;;;;;7.28;2.50;;;;;;;;;;5014366;28;19906;-74
2023/07/18 10:44:31;;;;;;;6.55;2.05;;;;;;;;;;5015361;28;20041;-75
2023/07/18 10:46:57;;;;;;;8.98;2.28;;;;;;;;;;5007428;28;20029;-75
2023/07/18 10:49:26;;;;;;;8.35;2.53;;;;;;;;;;5015048;28;20544;-75
2023/07/18 10:51:55;;;;;;;8.70;2.67;;;;;;;;;;5015240;28;20361;-74
2023/07/18 10:54:22;;;;;;;;;;;;;;;;;;5015793;28;20117;-75
2023/07/18 10:56:48;;;;;;;10.70;3.50;;;;;;;;;;5011952;28;19916;-75
2023/07/18 10:59:14;;;;;;;9.40;2.40;;;;;;;;;;5015216;28;20675;-75
2023/07/18 11:01:44;;;;;;;6.90;2.47;;;;;;;;;;5014940;28;20029;-74
2023/07/18 11:04:10;;;;;;;;;;;;;;;;;;5015955;28;20083;-75
2023/07/18 11:06:36;;;;;;;5.68;1.80;;;;;;;;;;5010349;28;19914;-74
2023/07/18 11:09:04;;;;;;;4.25;1.77;;;;;;;;;;5008612;28;20370;-74
2023/07/18 11:11:30;;;;;;;4.40;1.90;;;;;;;;;;5014780;28;20025;-74
2023/07/18 11:13:56;;;;;;;6.13;2.10;;;;;;;;;;5014797;28;20088;-74
2023/07/18 11:16:22;;;;;;;5.95;2.10;;;;;;;;;;5015010;28;20062;-74
2023/07/18 11:18:49;;;;;;;7.30;2.22;;;;;;;;;;5014004;28;20026;-75
2023/07/18 11:21:17;;;;;;;4.93;1.95;;;;;;;;;;5014561;28;20034;-75
2023/07/18 11:23:44;;;;;;;5.05;2.15;;;;;;;;;;5014740;28;20030;-75
2023/07/18 11:26:12;;;;;;;4.45;2.22;;;;;;;;;;5014563;28;20025;-75
2023/07/18 11:28:39;;;;;;;6.80;2.50;;;;;;;;;;5014711;28;20476;-74
2023/07/18 11:31:05;;;;;;;5.20;2.45;;;;;;;;;;5013188;28;20406;-75
2023/07/18 11:33:34;;;;;;;6.97;2.40;;;;;;;;;;5014178;28;20029;-75
2023/07/18 11:36:00;;;;;;;;;;;;;;;;;;5015110;28;20033;-74
2023/07/18 11:38:29;;;;;;;4.85;1.83;;;;;;;;;;5014096;28;19905;-75
2023/07/18 11:40:57;;;;;;;4.18;1.58;;;;;;;;;;5014228;28;20472;-75
2023/07/18 11:43:23;;;;;;;3.33;1.40;;;;;;;;;;5014235;28;20429;-75
2023/07/18 11:45:55;;;;;;;5.03;1.55;;;;;;;;;;5014039;28;20515;-74
2023/07/18 11:48:21;;;;;;;4.93;1.52;;;;;;;;;;5011556;28;20045;-75
2023/07/18 11:50:48;;;;;;;4.90;2.05;;;;;;;;;;5013971;28;20037;-75
2023/07/18 11:53:25;;;;;;;6.65;1.90;;;;;;;;;;5013739;28;20021;-74
2023/07/18 11:55:51;;;;;;;5.57;1.73;;;;;;;;;;5014278;28;20439;-74
2023/07/18 11:58:17;;;;;;;5.35;1.73;;;;;;;;;;5013972;28;20026;-74
2023/07/18 12:00:43;;;;;;;4.88;1.90;;;;;;;;;;5013825;28;20018;-73
2023/07/18 12:03:09;;;;;;;5.53;1.65;;;;;;;;;;5013722;28;20030;-74
2023/07/18 12:05:35;;;;;;;6.85;2.00;;;;;;;;;;5013804;28;20038;-74
2023/07/18 12:08:01;;;;;;;7.68;1.77;;;;;;;;;;5013764;28;20037;-74
2023/07/18 12:10:27;;;;;;;4.07;1.60;;;;;;;;;;5013035;28;20490;-74
2023/07/18 12:12:53;;;;;;;4.90;1.45;;;;;;;;;;4994140;28;20030;-74
2023/07/18 12:15:19;;;;;;;3.97;1.80;;;;;;;;;;5000259;28;20111;-74
2023/07/18 12:17:45;;;;;;;4.78;2.00;;;;;;;;;;5013471;28;20480;-74
2023/07/18 12:20:11;;;;;;;6.03;2.10;;;;;;;;;;5013484;28;20054;-74
2023/07/18 12:22:38;;;;;;;4.65;2.05;;;;;;;;;;5013362;28;20033;-74
2023/07/18 12:25:04;;;;;;;4.63;2.25;;;;;;;;;;5012163;28;20084;-74
2023/07/18 12:27:30;;;;;;;7.85;2.50;;;;;;;;;;4993740;28;20357;-74
2023/07/18 12:29:56;;;;;;;6.38;2.15;;;;;;;;;;4994308;28;20023;-74
2023/07/18 12:32:22;;;;;;;7.18;2.50;;;;;;;;;;4995432;28;20026;-74
2023/07/18 12:34:48;;;;;;;5.82;1.73;;;;;;;;;;5006010;28;20061;-74
2023/07/18 12:37:14;;;;;;;6.20;2.08;;;;;;;;;;5013031;28;20068;-74
2023/07/18 12:39:40;;;;;;;3.63;1.63;;;;;;;;;;5013223;28;20053;-74
2023/07/18 12:42:07;;;;;;;5.50;2.03;;;;;;;;;;5013277;28;20428;-75
2023/07/18 12:44:39;;;;;;;6.38;1.95;;;;;;;;;;5012963;28;20025;-75
2023/07/18 12:47:06;;;;;;;4.80;2.08;;;;;;;;;;5012945;28;20364;-75
2023/07/18 12:49:32;;;;;;;4.68;1.92;;;;;;;;;;5013073;28;20025;-75
2023/07/18 12:51:58;;;;;;;5.05;1.92;;;;;;;;;;4998707;28;20030;-75
2023/07/18 12:54:25;;;;;;;6.30;2.22;;;;;;;;;;4993828;28;20492;-75
2023/07/18 12:56:51;;;;;;;5.85;2.08;;;;;;;;;;4993453;28;20504;-75
2023/07/18 12:59:17;;;;;;;8.43;1.48;;;;;;;;;;4993201;28;20054;-75
2023/07/18 13:01:43;;;;;;;3.53;1.58;;;;;;;;;;4993237;28;20101;-75
2023/07/18 13:04:09;;;;;;;7.00;2.20;;;;;;;;;;4992795;28;20030;-75
2023/07/18 13:06:36;;;;;;;7.03;1.60;;;;;;;;;;4991945;28;20038;-75
2023/07/18 13:09:02;;;;;;;6.22;1.63;;;;;;;;;;4993270;28;20050;-75
2023/07/18 13:11:28;;;;;;;7.72;2.10;;;;;;;;;;4993085;28;20755;-75
2023/07/18 13:13:55;;;;;;;5.38;1.75;;;;;;;;;;4993094;28;20117;-75
2023/07/18 13:16:21;;;;;;;4.30;1.50;;;;;;;;;;4993070;28;20430;-75
2023/07/18 13:18:47;;;;;;;3.83;1.42;;;;;;;;;;5009864;28;20496;-75
2023/07/18 13:21:13;;;;;;;8.23;1.60;;;;;;;;;;5012266;28;20134;-75
2023/07/18 13:23:39;;;;;;;2.60;1.17;;;;;;;;;;5012416;28;20026;-74
2023/07/18 13:26:06;;;;;;;4.97;1.33;;;;;;;;;;5012465;28;20416;-75
2023/07/18 13:28:32;;;;;;;5.53;1.52;;;;;;;;;;5012830;28;20026;-75
2023/07/18 13:30:58;;;;;;;2.33;1.10;;;;;;;;;;5011206;28;20038;-75
2023/07/18 13:33:24;;;;;;;3.80;1.08;;;;;;;;;;5012425;28;20034;-74
2023/07/18 13:35:50;;;;;;;3.40;1.15;;;;;;;;;;5012496;28;20109;-74
2023/07/18 13:38:16;;;;;;;2.90;0.93;;;;;;;;;;5011190;28;20116;-74
2023/07/18 13:40:42;;;;;;;3.38;0.93;;;;;;;;;;5012351;28;20161;-74
2023/07/18 13:43:09;;;;;;;3.40;1.10;;;;;;;;;;5012224;28;20061;-74
2023/07/18 13:45:35;;;;;;;3.17;1.08;;;;;;;;;;5012705;28;20026;-74
2023/07/18 13:48:02;;;;;;;4.65;1.15;;;;;;;;;;5008921;28;20026;-74
2023/07/18 13:50:28;;;;;;;3.05;0.93;;;;;;;;;;5000359;28;20420;-74
2023/07/18 13:52:54;;;;;;;2.63;0.93;;;;;;;;;;4992959;28;20030;-74
2023/07/18 13:55:20;;;;;;;2.20;0.80;;;;;;;;;;4992736;28;20030;-74
2023/07/18 13:57:46;;;;;;;1.92;0.80;;;;;;;;;;4993009;28;20026;-74
2023/07/18 14:00:13;;;;;;;4.40;1.02;;;;;;;;;;4993141;28;20413;-74
2023/07/18 14:02:39;;;;;;;5.72;1.42;;;;;;;;;;4992731;28;20357;-74
2023/07/18 14:05:05;;;;;;;3.03;1.05;;;;;;;;;;4992885;28;20023;-74
2023/07/18 14:07:33;;;;;;;3.67;1.20;;;;;;;;;;4993185;28;20030;-74
2023/07/18 14:09:59;;;;;;;3.83;1.45;;;;;;;;;;4992949;28;20033;-74
2023/07/18 14:12:25;;;;;;;2.05;1.00;;;;;;;;;;4992757;28;20031;-74
2023/07/18 14:14:51;;;;;;;3.08;1.20;;;;;;;;;;4993830;28;20097;-74
2023/07/18 14:17:17;;;;;;;2.70;1.52;;;;;;;;;;4996232;28;20417;-74
2023/07/18 14:19:43;;;;;;;2.88;1.10;;;;;;;;;;4995679;28;20086;-74
2023/07/18 14:22:11;;;;;;;4.63;1.58;;;;;;;;;;4996241;28;20058;-74
2023/07/18 14:24:37;;;;;;;3.90;1.00;;;;;;;;;;4996377;28;20121;-74
2023/07/18 14:27:03;;;;;;;3.67;1.27;;;;;;;;;;4996099;28;20122;-74
2023/07/18 14:29:29;;;;;;;4.30;1.15;;;;;;;;;;4996176;28;20524;-74
2023/07/18 14:31:55;;;;;;;3.08;1.20;;;;;;;;;;4995949;28;20031;-74
2023/07/18 14:34:21;;;;;;;5.30;1.15;;;;;;;;;;4996067;28;20022;-74
2023/07/18 14:36:47;;;;;;;3.40;1.20;;;;;;;;;;4995963;28;20084;-74
2023/07/18 14:39:14;;;;;;;3.30;1.00;;;;;;;;;;4996133;28;20026;-74